sensor_id;sensor_type;location;lat;lon;timestamp;temperature;humidity
18321;DHT22;54904;54.350;18.664;2023-05-29T00:02:23;18.10;66.00
18321;DHT22;54904;54.350;18.664;2023-05-29T00:04:50;18.00;65.90
18321;DHT22;54904;54.350;18.664;2023-05-29T00:07:17;18.00;65.70
18321;DHT22;54904;54.350;18.664;2023-05-29T00:09:44;18.10;65.70
18321;DHT22;54904;54.350;18.664;2023-05-29T00:12:11;18.00;65.50
18321;DHT22;54904;54.350;18.664;2023-05-29T00:14:39;18.00;65.40
18321;DHT22;54904;54.350;18.664;2023-05-29T00:17:06;18.00;65.30
18321;DHT22;54904;54.350;18.664;2023-05-29T00:19:35;18.00;65.30
18321;DHT22;54904;54.350;18.664;2023-05-29T00:22:02;18.00;65.10
18321;DHT22;54904;54.350;18.664;2023-05-29T00:24:30;18.00;64.90
18321;DHT22;54904;54.350;18.664;2023-05-29T00:26:57;18.00;64.80
18321;DHT22;54904;54.350;18.664;2023-05-29T00:29:24;18.00;64.60
18321;DHT22;54904;54.350;18.664;2023-05-29T00:31:52;18.00;64.40
18321;DHT22;54904;54.350;18.664;2023-05-29T00:34:22;17.90;64.30
18321;DHT22;54904;54.350;18.664;2023-05-29T00:36:52;17.90;64.10
18321;DHT22;54904;54.350;18.664;2023-05-29T00:39:21;17.90;64.00
18321;DHT22;54904;54.350;18.664;2023-05-29T00:41:48;17.90;63.90
18321;DHT22;54904;54.350;18.664;2023-05-29T00:44:17;17.90;63.80
18321;DHT22;54904;54.350;18.664;2023-05-29T00:46:44;17.90;63.70
18321;DHT22;54904;54.350;18.664;2023-05-29T00:49:12;17.90;63.50
18321;DHT22;54904;54.350;18.664;2023-05-29T00:51:39;17.80;63.20
18321;DHT22;54904;54.350;18.664;2023-05-29T00:54:12;17.90;63.20
18321;DHT22;54904;54.350;18.664;2023-05-29T00:56:40;17.90;63.00
18321;DHT22;54904;54.350;18.664;2023-05-29T00:59:09;17.90;62.90
18321;DHT22;54904;54.350;18.664;2023-05-29T01:04:15;18.30;63.10
18321;DHT22;54904;54.350;18.664;2023-05-29T01:06:43;17.80;62.40
18321;DHT22;54904;54.350;18.664;2023-05-29T01:09:12;17.80;62.40
18321;DHT22;54904;54.350;18.664;2023-05-29T01:11:49;17.80;62.40
18321;DHT22;54904;54.350;18.664;2023-05-29T01:14:25;17.80;62.30
18321;DHT22;54904;54.350;18.664;2023-05-29T01:17:03;17.70;62.10
18321;DHT22;54904;54.350;18.664;2023-05-29T01:19:54;17.80;62.20
18321;DHT22;54904;54.350;18.664;2023-05-29T01:22:30;17.80;62.20
18321;DHT22;54904;54.350;18.664;2023-05-29T01:25:10;17.80;62.20
18321;DHT22;54904;54.350;18.664;2023-05-29T01:27:41;17.70;62.00
18321;DHT22;54904;54.350;18.664;2023-05-29T01:30:11;17.70;62.00
18321;DHT22;54904;54.350;18.664;2023-05-29T01:32:41;17.70;62.00
18321;DHT22;54904;54.350;18.664;2023-05-29T01:35:09;17.70;62.00
18321;DHT22;54904;54.350;18.664;2023-05-29T01:37:36;17.70;62.00
18321;DHT22;54904;54.350;18.664;2023-05-29T01:40:04;17.70;62.00
18321;DHT22;54904;54.350;18.664;2023-05-29T01:42:31;17.70;62.10
18321;DHT22;54904;54.350;18.664;2023-05-29T01:45:01;17.70;62.00
18321;DHT22;54904;54.350;18.664;2023-05-29T01:47:29;17.70;62.00
18321;DHT22;54904;54.350;18.664;2023-05-29T01:50:00;17.70;62.00
18321;DHT22;54904;54.350;18.664;2023-05-29T01:52:29;17.70;62.10
18321;DHT22;54904;54.350;18.664;2023-05-29T01:54:56;17.70;62.10
18321;DHT22;54904;54.350;18.664;2023-05-29T01:57:24;17.60;62.30
18321;DHT22;54904;54.350;18.664;2023-05-29T01:59:52;17.60;62.20
18321;DHT22;54904;54.350;18.664;2023-05-29T02:02:22;17.60;62.20
18321;DHT22;54904;54.350;18.664;2023-05-29T02:04:49;17.60;62.10
18321;DHT22;54904;54.350;18.664;2023-05-29T02:07:17;17.60;62.10
18321;DHT22;54904;54.350;18.664;2023-05-29T02:09:45;17.60;62.10
18321;DHT22;54904;54.350;18.664;2023-05-29T02:12:12;17.70;62.10
18321;DHT22;54904;54.350;18.664;2023-05-29T02:14:39;17.70;62.10
18321;DHT22;54904;54.350;18.664;2023-05-29T02:17:07;17.60;62.00
18321;DHT22;54904;54.350;18.664;2023-05-29T02:19:36;17.60;62.10
18321;DHT22;54904;54.350;18.664;2023-05-29T02:22:04;17.60;62.20
18321;DHT22;54904;54.350;18.664;2023-05-29T02:24:31;17.60;62.20
18321;DHT22;54904;54.350;18.664;2023-05-29T02:27:00;17.60;62.30
18321;DHT22;54904;54.350;18.664;2023-05-29T02:29:27;17.60;62.30
18321;DHT22;54904;54.350;18.664;2023-05-29T02:31:54;17.60;62.30
18321;DHT22;54904;54.350;18.664;2023-05-29T02:34:21;17.60;62.50
18321;DHT22;54904;54.350;18.664;2023-05-29T02:36:50;17.50;62.50
18321;DHT22;54904;54.350;18.664;2023-05-29T02:39:18;17.50;62.60
18321;DHT22;54904;54.350;18.664;2023-05-29T02:41:46;17.40;62.70
18321;DHT22;54904;54.350;18.664;2023-05-29T02:44:13;17.40;62.90
18321;DHT22;54904;54.350;18.664;2023-05-29T02:46:40;17.30;63.00
18321;DHT22;54904;54.350;18.664;2023-05-29T02:49:08;17.30;63.20
18321;DHT22;54904;54.350;18.664;2023-05-29T02:51:35;17.30;63.20
18321;DHT22;54904;54.350;18.664;2023-05-29T02:54:04;17.30;63.30
18321;DHT22;54904;54.350;18.664;2023-05-29T02:56:31;17.30;63.30
18321;DHT22;54904;54.350;18.664;2023-05-29T02:59:00;17.30;63.30
18321;DHT22;54904;54.350;18.664;2023-05-29T03:01:28;17.30;63.40
18321;DHT22;54904;54.350;18.664;2023-05-29T03:03:55;17.30;64.00
18321;DHT22;54904;54.350;18.664;2023-05-29T03:06:22;17.30;63.30
18321;DHT22;54904;54.350;18.664;2023-05-29T03:08:50;17.30;63.30
18321;DHT22;54904;54.350;18.664;2023-05-29T03:11:19;17.30;63.50
18321;DHT22;54904;54.350;18.664;2023-05-29T03:13:49;17.30;63.50
18321;DHT22;54904;54.350;18.664;2023-05-29T03:16:17;17.30;63.70
18321;DHT22;54904;54.350;18.664;2023-05-29T03:18:45;17.20;63.70
18321;DHT22;54904;54.350;18.664;2023-05-29T03:21:16;17.30;63.90
18321;DHT22;54904;54.350;18.664;2023-05-29T03:23:44;17.30;64.10
18321;DHT22;54904;54.350;18.664;2023-05-29T03:26:12;17.30;64.20
18321;DHT22;54904;54.350;18.664;2023-05-29T03:28:42;17.30;64.30
18321;DHT22;54904;54.350;18.664;2023-05-29T03:31:10;17.20;64.40
18321;DHT22;54904;54.350;18.664;2023-05-29T03:33:37;17.20;64.60
18321;DHT22;54904;54.350;18.664;2023-05-29T03:36:15;17.20;64.80
18321;DHT22;54904;54.350;18.664;2023-05-29T03:38:43;17.20;64.80
18321;DHT22;54904;54.350;18.664;2023-05-29T03:41:11;17.20;64.90
18321;DHT22;54904;54.350;18.664;2023-05-29T03:43:38;17.30;65.10
18321;DHT22;54904;54.350;18.664;2023-05-29T03:46:06;17.30;65.20
18321;DHT22;54904;54.350;18.664;2023-05-29T03:48:35;17.30;65.30
18321;DHT22;54904;54.350;18.664;2023-05-29T03:51:02;17.40;65.50
18321;DHT22;54904;54.350;18.664;2023-05-29T03:53:34;17.40;65.50
18321;DHT22;54904;54.350;18.664;2023-05-29T03:56:01;17.40;65.60
18321;DHT22;54904;54.350;18.664;2023-05-29T03:58:29;17.40;65.80
18321;DHT22;54904;54.350;18.664;2023-05-29T04:00:57;17.30;65.90
18321;DHT22;54904;54.350;18.664;2023-05-29T04:03:28;17.30;66.10
18321;DHT22;54904;54.350;18.664;2023-05-29T04:05:58;17.30;66.30
18321;DHT22;54904;54.350;18.664;2023-05-29T04:08:25;17.30;66.40
18321;DHT22;54904;54.350;18.664;2023-05-29T04:10:52;17.30;66.50
18321;DHT22;54904;54.350;18.664;2023-05-29T04:13:21;17.30;66.40
18321;DHT22;54904;54.350;18.664;2023-05-29T04:15:48;17.40;66.50
18321;DHT22;54904;54.350;18.664;2023-05-29T04:18:18;17.40;66.50
18321;DHT22;54904;54.350;18.664;2023-05-29T04:20:47;17.40;66.50
18321;DHT22;54904;54.350;18.664;2023-05-29T04:23:14;17.40;66.50
18321;DHT22;54904;54.350;18.664;2023-05-29T04:25:42;17.40;66.50
18321;DHT22;54904;54.350;18.664;2023-05-29T04:28:11;17.50;66.60
18321;DHT22;54904;54.350;18.664;2023-05-29T04:30:38;17.50;66.50
18321;DHT22;54904;54.350;18.664;2023-05-29T04:33:08;17.60;66.50
18321;DHT22;54904;54.350;18.664;2023-05-29T04:35:43;17.70;66.50
18321;DHT22;54904;54.350;18.664;2023-05-29T04:38:12;17.70;66.30
18321;DHT22;54904;54.350;18.664;2023-05-29T04:40:40;17.70;66.20
18321;DHT22;54904;54.350;18.664;2023-05-29T04:43:07;17.80;66.30
18321;DHT22;54904;54.350;18.664;2023-05-29T04:45:56;17.80;66.20
18321;DHT22;54904;54.350;18.664;2023-05-29T04:48:24;17.90;66.20
18321;DHT22;54904;54.350;18.664;2023-05-29T04:50:53;17.90;66.20
18321;DHT22;54904;54.350;18.664;2023-05-29T04:53:21;18.00;66.10
18321;DHT22;54904;54.350;18.664;2023-05-29T04:55:49;18.00;66.00
18321;DHT22;54904;54.350;18.664;2023-05-29T04:58:16;18.10;66.00
18321;DHT22;54904;54.350;18.664;2023-05-29T05:00:44;18.10;65.90
18321;DHT22;54904;54.350;18.664;2023-05-29T05:03:11;18.10;65.70
18321;DHT22;54904;54.350;18.664;2023-05-29T05:05:43;18.10;65.50
18321;DHT22;54904;54.350;18.664;2023-05-29T05:08:11;18.20;65.30
18321;DHT22;54904;54.350;18.664;2023-05-29T05:10:40;18.30;65.30
18321;DHT22;54904;54.350;18.664;2023-05-29T05:13:07;18.30;65.10
18321;DHT22;54904;54.350;18.664;2023-05-29T05:15:36;18.30;65.00
18321;DHT22;54904;54.350;18.664;2023-05-29T05:18:04;18.30;64.90
18321;DHT22;54904;54.350;18.664;2023-05-29T05:20:32;18.40;64.50
18321;DHT22;54904;54.350;18.664;2023-05-29T05:23:00;18.50;64.10
18321;DHT22;54904;54.350;18.664;2023-05-29T05:25:28;18.40;63.40
18321;DHT22;54904;54.350;18.664;2023-05-29T05:27:56;18.50;63.10
18321;DHT22;54904;54.350;18.664;2023-05-29T05:30:26;18.50;62.80
18321;DHT22;54904;54.350;18.664;2023-05-29T05:32:53;18.50;62.50
18321;DHT22;54904;54.350;18.664;2023-05-29T05:35:20;18.50;62.20
18321;DHT22;54904;54.350;18.664;2023-05-29T05:37:47;18.60;62.20
18321;DHT22;54904;54.350;18.664;2023-05-29T05:40:15;18.40;62.00
18321;DHT22;54904;54.350;18.664;2023-05-29T05:42:59;18.40;61.90
18321;DHT22;54904;54.350;18.664;2023-05-29T05:45:46;18.40;61.80
18321;DHT22;54904;54.350;18.664;2023-05-29T05:48:14;18.40;61.70
18321;DHT22;54904;54.350;18.664;2023-05-29T05:50:41;18.40;61.70
18321;DHT22;54904;54.350;18.664;2023-05-29T05:53:08;18.50;61.60
18321;DHT22;54904;54.350;18.664;2023-05-29T05:55:37;18.40;61.40
18321;DHT22;54904;54.350;18.664;2023-05-29T05:58:05;18.40;61.20
18321;DHT22;54904;54.350;18.664;2023-05-29T06:00:34;18.40;61.30
18321;DHT22;54904;54.350;18.664;2023-05-29T06:03:01;18.30;61.20
18321;DHT22;54904;54.350;18.664;2023-05-29T06:05:55;18.30;61.10
18321;DHT22;54904;54.350;18.664;2023-05-29T06:08:23;18.30;61.10
18321;DHT22;54904;54.350;18.664;2023-05-29T06:10:51;18.30;61.10
18321;DHT22;54904;54.350;18.664;2023-05-29T06:13:20;18.30;61.00
18321;DHT22;54904;54.350;18.664;2023-05-29T06:15:53;18.30;61.00
18321;DHT22;54904;54.350;18.664;2023-05-29T06:18:20;18.30;61.00
18321;DHT22;54904;54.350;18.664;2023-05-29T06:20:47;18.30;61.00
18321;DHT22;54904;54.350;18.664;2023-05-29T06:23:15;18.40;60.90
18321;DHT22;54904;54.350;18.664;2023-05-29T06:25:43;18.40;61.00
18321;DHT22;54904;54.350;18.664;2023-05-29T06:28:10;18.40;61.00
18321;DHT22;54904;54.350;18.664;2023-05-29T06:30:39;18.40;61.20
18321;DHT22;54904;54.350;18.664;2023-05-29T06:33:07;18.40;61.30
18321;DHT22;54904;54.350;18.664;2023-05-29T06:35:38;18.50;61.40
18321;DHT22;54904;54.350;18.664;2023-05-29T06:38:05;18.50;61.50
18321;DHT22;54904;54.350;18.664;2023-05-29T06:40:33;18.60;61.50
18321;DHT22;54904;54.350;18.664;2023-05-29T06:43:01;18.60;61.30
18321;DHT22;54904;54.350;18.664;2023-05-29T06:45:40;18.70;61.20
18321;DHT22;54904;54.350;18.664;2023-05-29T06:48:08;18.80;61.30
18321;DHT22;54904;54.350;18.664;2023-05-29T06:50:38;18.80;61.00
18321;DHT22;54904;54.350;18.664;2023-05-29T06:53:41;18.90;60.80
18321;DHT22;54904;54.350;18.664;2023-05-29T06:56:11;18.90;60.50
18321;DHT22;54904;54.350;18.664;2023-05-29T06:58:38;18.90;60.40
18321;DHT22;54904;54.350;18.664;2023-05-29T07:01:07;18.80;60.20
18321;DHT22;54904;54.350;18.664;2023-05-29T07:03:36;18.80;60.20
18321;DHT22;54904;54.350;18.664;2023-05-29T07:06:04;18.90;60.30
18321;DHT22;54904;54.350;18.664;2023-05-29T07:08:32;18.90;60.30
18321;DHT22;54904;54.350;18.664;2023-05-29T07:11:00;19.10;60.40
18321;DHT22;54904;54.350;18.664;2023-05-29T07:13:28;19.10;60.30
18321;DHT22;54904;54.350;18.664;2023-05-29T07:15:55;19.20;60.40
18321;DHT22;54904;54.350;18.664;2023-05-29T07:18:30;19.30;60.20
18321;DHT22;54904;54.350;18.664;2023-05-29T07:21:00;19.30;59.70
18321;DHT22;54904;54.350;18.664;2023-05-29T07:23:28;19.40;59.60
18321;DHT22;54904;54.350;18.664;2023-05-29T07:25:56;19.40;59.50
18321;DHT22;54904;54.350;18.664;2023-05-29T07:28:27;19.50;59.50
18321;DHT22;54904;54.350;18.664;2023-05-29T07:30:54;19.50;59.20
18321;DHT22;54904;54.350;18.664;2023-05-29T07:33:21;19.50;59.00
18321;DHT22;54904;54.350;18.664;2023-05-29T07:35:50;19.60;58.90
18321;DHT22;54904;54.350;18.664;2023-05-29T07:38:17;19.60;58.70
18321;DHT22;54904;54.350;18.664;2023-05-29T07:40:44;19.60;58.50
18321;DHT22;54904;54.350;18.664;2023-05-29T07:43:29;19.60;58.30
18321;DHT22;54904;54.350;18.664;2023-05-29T07:45:59;19.60;58.10
18321;DHT22;54904;54.350;18.664;2023-05-29T07:48:27;19.60;58.00
18321;DHT22;54904;54.350;18.664;2023-05-29T07:50:58;19.70;58.00
18321;DHT22;54904;54.350;18.664;2023-05-29T07:53:28;19.70;57.90
18321;DHT22;54904;54.350;18.664;2023-05-29T07:55:56;19.80;57.90
18321;DHT22;54904;54.350;18.664;2023-05-29T07:58:23;19.90;57.80
18321;DHT22;54904;54.350;18.664;2023-05-29T08:00:50;19.90;57.70
18321;DHT22;54904;54.350;18.664;2023-05-29T08:03:18;19.90;57.50
18321;DHT22;54904;54.350;18.664;2023-05-29T08:06:05;19.90;57.40
18321;DHT22;54904;54.350;18.664;2023-05-29T08:08:33;19.90;57.10
18321;DHT22;54904;54.350;18.664;2023-05-29T08:11:01;20.00;57.20
18321;DHT22;54904;54.350;18.664;2023-05-29T08:13:29;20.00;56.90
18321;DHT22;54904;54.350;18.664;2023-05-29T08:15:57;20.00;56.80
18321;DHT22;54904;54.350;18.664;2023-05-29T08:18:25;20.00;56.60
18321;DHT22;54904;54.350;18.664;2023-05-29T08:20:52;20.10;56.40
18321;DHT22;54904;54.350;18.664;2023-05-29T08:23:21;20.20;56.20
18321;DHT22;54904;54.350;18.664;2023-05-29T08:25:48;20.20;56.10
18321;DHT22;54904;54.350;18.664;2023-05-29T08:28:15;20.30;55.70
18321;DHT22;54904;54.350;18.664;2023-05-29T08:30:42;20.40;55.60
18321;DHT22;54904;54.350;18.664;2023-05-29T08:33:09;20.40;55.50
18321;DHT22;54904;54.350;18.664;2023-05-29T08:35:36;20.50;55.10
18321;DHT22;54904;54.350;18.664;2023-05-29T08:38:04;20.50;54.90
18321;DHT22;54904;54.350;18.664;2023-05-29T08:40:33;20.60;54.60
18321;DHT22;54904;54.350;18.664;2023-05-29T08:43:06;20.60;54.10
18321;DHT22;54904;54.350;18.664;2023-05-29T08:45:42;20.60;53.70
18321;DHT22;54904;54.350;18.664;2023-05-29T08:48:09;20.70;53.20
18321;DHT22;54904;54.350;18.664;2023-05-29T08:50:39;20.80;53.00
18321;DHT22;54904;54.350;18.664;2023-05-29T08:53:10;20.80;52.80
18321;DHT22;54904;54.350;18.664;2023-05-29T08:55:38;20.90;52.40
18321;DHT22;54904;54.350;18.664;2023-05-29T08:58:06;21.00;52.40
18321;DHT22;54904;54.350;18.664;2023-05-29T09:00:35;21.10;52.30
18321;DHT22;54904;54.350;18.664;2023-05-29T09:03:03;21.10;51.80
18321;DHT22;54904;54.350;18.664;2023-05-29T09:05:30;21.20;51.80
18321;DHT22;54904;54.350;18.664;2023-05-29T09:07:59;21.30;51.50
18321;DHT22;54904;54.350;18.664;2023-05-29T09:10:28;21.40;51.00
18321;DHT22;54904;54.350;18.664;2023-05-29T09:12:57;21.40;50.50
18321;DHT22;54904;54.350;18.664;2023-05-29T09:15:24;21.50;50.20
18321;DHT22;54904;54.350;18.664;2023-05-29T09:17:52;21.50;49.70
18321;DHT22;54904;54.350;18.664;2023-05-29T09:20:21;21.60;49.30
18321;DHT22;54904;54.350;18.664;2023-05-29T09:22:53;21.70;48.90
18321;DHT22;54904;54.350;18.664;2023-05-29T09:25:22;21.70;48.50
18321;DHT22;54904;54.350;18.664;2023-05-29T09:27:52;21.70;48.40
18321;DHT22;54904;54.350;18.664;2023-05-29T09:30:35;21.80;48.50
18321;DHT22;54904;54.350;18.664;2023-05-29T09:33:04;21.70;48.40
18321;DHT22;54904;54.350;18.664;2023-05-29T09:35:35;21.80;48.60
18321;DHT22;54904;54.350;18.664;2023-05-29T09:38:03;21.90;48.70
18321;DHT22;54904;54.350;18.664;2023-05-29T09:40:31;22.00;48.80
18321;DHT22;54904;54.350;18.664;2023-05-29T09:43:03;22.10;48.70
18321;DHT22;54904;54.350;18.664;2023-05-29T09:45:37;22.20;48.80
18321;DHT22;54904;54.350;18.664;2023-05-29T09:48:06;22.30;49.20
18321;DHT22;54904;54.350;18.664;2023-05-29T09:50:34;22.30;49.60
18321;DHT22;54904;54.350;18.664;2023-05-29T09:53:01;22.40;50.10
18321;DHT22;54904;54.350;18.664;2023-05-29T09:55:31;22.50;50.70
18321;DHT22;54904;54.350;18.664;2023-05-29T09:57:59;22.50;51.10
18321;DHT22;54904;54.350;18.664;2023-05-29T10:00:28;22.60;52.20
18321;DHT22;54904;54.350;18.664;2023-05-29T10:02:58;22.60;52.90
18321;DHT22;54904;54.350;18.664;2023-05-29T10:05:25;22.60;54.10
18321;DHT22;54904;54.350;18.664;2023-05-29T10:07:54;22.60;55.20
18321;DHT22;54904;54.350;18.664;2023-05-29T10:10:21;22.50;56.10
18321;DHT22;54904;54.350;18.664;2023-05-29T10:12:52;22.40;56.60
18321;DHT22;54904;54.350;18.664;2023-05-29T10:15:22;22.40;56.80
18321;DHT22;54904;54.350;18.664;2023-05-29T10:17:52;22.40;56.80
18321;DHT22;54904;54.350;18.664;2023-05-29T10:20:26;22.30;57.50
18321;DHT22;54904;54.350;18.664;2023-05-29T10:22:56;22.20;56.90
18321;DHT22;54904;54.350;18.664;2023-05-29T10:25:27;22.20;56.90
18321;DHT22;54904;54.350;18.664;2023-05-29T10:27:56;22.20;56.90
18321;DHT22;54904;54.350;18.664;2023-05-29T10:30:29;22.20;56.70
18321;DHT22;54904;54.350;18.664;2023-05-29T10:36:07;22.30;55.50
18321;DHT22;54904;54.350;18.664;2023-05-29T10:38:40;22.20;55.30
18321;DHT22;54904;54.350;18.664;2023-05-29T10:41:32;22.20;55.60
18321;DHT22;54904;54.350;18.664;2023-05-29T10:44:39;22.30;56.10
18321;DHT22;54904;54.350;18.664;2023-05-29T10:47:09;22.30;55.80
18321;DHT22;54904;54.350;18.664;2023-05-29T10:49:38;22.40;55.90
18321;DHT22;54904;54.350;18.664;2023-05-29T10:52:06;22.40;55.80
18321;DHT22;54904;54.350;18.664;2023-05-29T10:54:49;22.50;55.10
18321;DHT22;54904;54.350;18.664;2023-05-29T10:57:21;22.50;54.70
18321;DHT22;54904;54.350;18.664;2023-05-29T10:59:52;22.60;54.50
18321;DHT22;54904;54.350;18.664;2023-05-29T11:02:24;22.60;54.20
18321;DHT22;54904;54.350;18.664;2023-05-29T11:05:05;22.20;54.10
18321;DHT22;54904;54.350;18.664;2023-05-29T11:07:35;22.60;54.70
18321;DHT22;54904;54.350;18.664;2023-05-29T11:10:12;22.70;54.70
18321;DHT22;54904;54.350;18.664;2023-05-29T11:12:58;22.70;54.70
18321;DHT22;54904;54.350;18.664;2023-05-29T11:15:26;22.80;54.90
18321;DHT22;54904;54.350;18.664;2023-05-29T11:17:53;22.90;55.00
18321;DHT22;54904;54.350;18.664;2023-05-29T11:20:42;22.90;55.00
18321;DHT22;54904;54.350;18.664;2023-05-29T11:23:15;23.10;54.80
18321;DHT22;54904;54.350;18.664;2023-05-29T11:25:44;23.20;54.80
18321;DHT22;54904;54.350;18.664;2023-05-29T11:28:13;23.20;54.60
18321;DHT22;54904;54.350;18.664;2023-05-29T11:30:45;23.30;54.50
18321;DHT22;54904;54.350;18.664;2023-05-29T11:33:20;23.30;54.10
18321;DHT22;54904;54.350;18.664;2023-05-29T11:35:55;23.30;54.00
18321;DHT22;54904;54.350;18.664;2023-05-29T11:38:25;23.30;54.10
18321;DHT22;54904;54.350;18.664;2023-05-29T11:40:53;23.40;54.10
18321;DHT22;54904;54.350;18.664;2023-05-29T11:43:21;23.40;53.80
18321;DHT22;54904;54.350;18.664;2023-05-29T11:45:48;23.40;53.80
18321;DHT22;54904;54.350;18.664;2023-05-29T11:48:15;23.40;53.80
18321;DHT22;54904;54.350;18.664;2023-05-29T11:50:42;23.50;53.80
18321;DHT22;54904;54.350;18.664;2023-05-29T11:53:12;23.50;53.20
18321;DHT22;54904;54.350;18.664;2023-05-29T11:55:40;23.50;52.50
18321;DHT22;54904;54.350;18.664;2023-05-29T11:58:07;23.50;51.80
18321;DHT22;54904;54.350;18.664;2023-05-29T12:00:35;23.40;51.20
18321;DHT22;54904;54.350;18.664;2023-05-29T12:03:03;23.40;51.10
18321;DHT22;54904;54.350;18.664;2023-05-29T12:05:31;23.40;51.10
18321;DHT22;54904;54.350;18.664;2023-05-29T12:07:58;23.30;50.90
18321;DHT22;54904;54.350;18.664;2023-05-29T12:10:28;23.30;50.50
18321;DHT22;54904;54.350;18.664;2023-05-29T12:12:59;23.30;50.60
18321;DHT22;54904;54.350;18.664;2023-05-29T12:15:26;23.30;50.50
18321;DHT22;54904;54.350;18.664;2023-05-29T12:17:55;23.30;50.20
18321;DHT22;54904;54.350;18.664;2023-05-29T12:20:24;23.30;50.60
18321;DHT22;54904;54.350;18.664;2023-05-29T12:22:53;23.30;51.10
18321;DHT22;54904;54.350;18.664;2023-05-29T12:25:25;23.30;50.50
18321;DHT22;54904;54.350;18.664;2023-05-29T12:27:56;23.30;50.00
18321;DHT22;54904;54.350;18.664;2023-05-29T12:30:24;23.30;49.30
18321;DHT22;54904;54.350;18.664;2023-05-29T12:32:53;23.30;49.10
18321;DHT22;54904;54.350;18.664;2023-05-29T12:35:21;23.20;49.20
18321;DHT22;54904;54.350;18.664;2023-05-29T12:37:53;23.30;48.70
18321;DHT22;54904;54.350;18.664;2023-05-29T12:40:22;23.30;48.10
18321;DHT22;54904;54.350;18.664;2023-05-29T12:42:54;23.20;47.70
18321;DHT22;54904;54.350;18.664;2023-05-29T12:45:25;23.20;48.00
18321;DHT22;54904;54.350;18.664;2023-05-29T12:47:53;23.10;47.50
18321;DHT22;54904;54.350;18.664;2023-05-29T12:50:22;23.10;47.30
18321;DHT22;54904;54.350;18.664;2023-05-29T12:52:57;23.10;47.30
18321;DHT22;54904;54.350;18.664;2023-05-29T12:55:25;23.10;47.20
18321;DHT22;54904;54.350;18.664;2023-05-29T12:57:53;23.10;47.10
18321;DHT22;54904;54.350;18.664;2023-05-29T13:00:20;23.10;47.20
18321;DHT22;54904;54.350;18.664;2023-05-29T13:02:50;23.10;47.40
18321;DHT22;54904;54.350;18.664;2023-05-29T13:05:17;23.10;47.50
18321;DHT22;54904;54.350;18.664;2023-05-29T13:07:48;23.10;47.70
18321;DHT22;54904;54.350;18.664;2023-05-29T13:10:16;23.10;47.50
18321;DHT22;54904;54.350;18.664;2023-05-29T13:12:43;23.10;47.80
18321;DHT22;54904;54.350;18.664;2023-05-29T13:15:12;23.10;47.90
18321;DHT22;54904;54.350;18.664;2023-05-29T13:17:40;23.10;47.90
18321;DHT22;54904;54.350;18.664;2023-05-29T13:20:11;23.10;48.10
18321;DHT22;54904;54.350;18.664;2023-05-29T13:22:39;23.10;48.30
18321;DHT22;54904;54.350;18.664;2023-05-29T13:25:08;23.10;48.10
18321;DHT22;54904;54.350;18.664;2023-05-29T13:27:36;23.10;48.00
18321;DHT22;54904;54.350;18.664;2023-05-29T13:30:05;23.10;48.00
18321;DHT22;54904;54.350;18.664;2023-05-29T13:32:32;23.10;48.20
18321;DHT22;54904;54.350;18.664;2023-05-29T13:34:59;23.10;48.20
18321;DHT22;54904;54.350;18.664;2023-05-29T13:37:29;23.20;48.30
18321;DHT22;54904;54.350;18.664;2023-05-29T13:39:56;23.20;48.30
18321;DHT22;54904;54.350;18.664;2023-05-29T13:42:23;23.30;48.70
18321;DHT22;54904;54.350;18.664;2023-05-29T13:44:51;23.30;49.00
18321;DHT22;54904;54.350;18.664;2023-05-29T13:47:18;23.30;49.60
18321;DHT22;54904;54.350;18.664;2023-05-29T13:49:45;23.30;49.90
18321;DHT22;54904;54.350;18.664;2023-05-29T13:52:12;23.20;50.40
18321;DHT22;54904;54.350;18.664;2023-05-29T13:54:41;23.20;50.80
18321;DHT22;54904;54.350;18.664;2023-05-29T13:57:08;23.20;50.90
18321;DHT22;54904;54.350;18.664;2023-05-29T13:59:36;23.20;51.40
18321;DHT22;54904;54.350;18.664;2023-05-29T14:02:03;23.10;51.50
18321;DHT22;54904;54.350;18.664;2023-05-29T14:04:31;23.10;51.60
18321;DHT22;54904;54.350;18.664;2023-05-29T14:06:58;23.10;51.90
18321;DHT22;54904;54.350;18.664;2023-05-29T14:09:25;23.00;52.00
18321;DHT22;54904;54.350;18.664;2023-05-29T14:11:58;23.00;52.40
18321;DHT22;54904;54.350;18.664;2023-05-29T14:14:26;23.00;52.70
18321;DHT22;54904;54.350;18.664;2023-05-29T14:16:53;22.90;52.90
18321;DHT22;54904;54.350;18.664;2023-05-29T14:19:21;22.90;53.00
18321;DHT22;54904;54.350;18.664;2023-05-29T14:21:49;22.90;53.40
18321;DHT22;54904;54.350;18.664;2023-05-29T14:24:16;22.90;53.70
18321;DHT22;54904;54.350;18.664;2023-05-29T14:26:43;22.90;53.70
18321;DHT22;54904;54.350;18.664;2023-05-29T14:29:14;22.90;53.70
18321;DHT22;54904;54.350;18.664;2023-05-29T14:31:42;22.90;53.90
18321;DHT22;54904;54.350;18.664;2023-05-29T14:34:09;22.80;53.90
18321;DHT22;54904;54.350;18.664;2023-05-29T14:36:37;22.80;54.00
18321;DHT22;54904;54.350;18.664;2023-05-29T14:39:04;22.80;54.00
18321;DHT22;54904;54.350;18.664;2023-05-29T14:41:31;22.80;54.20
18321;DHT22;54904;54.350;18.664;2023-05-29T14:43:59;22.80;54.40
18321;DHT22;54904;54.350;18.664;2023-05-29T14:46:27;22.70;54.40
18321;DHT22;54904;54.350;18.664;2023-05-29T14:48:57;22.60;54.50
18321;DHT22;54904;54.350;18.664;2023-05-29T14:51:25;22.60;55.10
18321;DHT22;54904;54.350;18.664;2023-05-29T14:53:52;22.50;55.20
18321;DHT22;54904;54.350;18.664;2023-05-29T14:56:19;22.40;55.20
18321;DHT22;54904;54.350;18.664;2023-05-29T14:58:46;22.40;55.50
18321;DHT22;54904;54.350;18.664;2023-05-29T15:01:15;22.30;55.90
18321;DHT22;54904;54.350;18.664;2023-05-29T15:03:43;22.30;56.20
18321;DHT22;54904;54.350;18.664;2023-05-29T15:06:11;22.20;56.30
18321;DHT22;54904;54.350;18.664;2023-05-29T15:08:39;22.20;56.40
18321;DHT22;54904;54.350;18.664;2023-05-29T15:11:07;22.20;56.90
18321;DHT22;54904;54.350;18.664;2023-05-29T15:13:35;22.20;57.20
18321;DHT22;54904;54.350;18.664;2023-05-29T15:16:02;22.20;57.40
18321;DHT22;54904;54.350;18.664;2023-05-29T15:18:29;22.10;57.40
18321;DHT22;54904;54.350;18.664;2023-05-29T15:20:58;22.10;57.50
18321;DHT22;54904;54.350;18.664;2023-05-29T15:23:25;22.10;57.60
18321;DHT22;54904;54.350;18.664;2023-05-29T15:25:53;22.10;58.00
18321;DHT22;54904;54.350;18.664;2023-05-29T15:28:21;22.10;58.10
18321;DHT22;54904;54.350;18.664;2023-05-29T15:30:48;22.00;58.10
18321;DHT22;54904;54.350;18.664;2023-05-29T15:33:15;22.00;58.10
18321;DHT22;54904;54.350;18.664;2023-05-29T15:35:42;22.00;58.00